Time;durP1;ratioP1;P1;durP2;ratioP2;P2;SDS_P1;SDS_P2;PMS_P1;PMS_P2;Temp;Humidity;BMP_temperature;BMP_pressure;BME280_temperature;BME280_humidity;BME280_pressure;Samples;Min_cycle;Max_cycle;Signal;HPM_P1;HPM_P2
2024/04/19 00:00:27;;;;;;;;;;;;;;;11.41;100.00;101217.28;5536833;26;996;-83
2024/04/19 00:02:53;;;;;;;;;;;;;;;11.30;100.00;101211.03;5503215;26;1938;-83
2024/04/19 00:05:19;;;;;;;;;;;;;;;11.28;100.00;101203.09;5535752;25;953;-83
2024/04/19 00:07:45;;;;;;;;;;;;;;;11.39;100.00;101203.09;5503303;26;1175;-83
2024/04/19 00:10:11;;;;;;;;;;;;;;;11.25;100.00;101195.28;5533604;26;770;-83
2024/04/19 00:12:38;;;;;;;;;;;;;;;11.13;100.00;101183.66;5533220;26;789;-83
2024/04/19 00:15:05;;;;;;;;;;;;;;;11.26;100.00;101185.41;5532433;25;870;-83
2024/04/19 00:17:33;;;;;;;;;;;;;;;11.26;100.00;101174.66;5536110;25;1233;-83
2024/04/19 00:19:59;;;;;;;;;;;;;;;11.07;100.00;101170.72;5533696;26;789;-83
2024/04/19 00:22:25;;;;;;;;;;;;;;;11.11;100.00;101166.84;5535940;26;1852;-83
2024/04/19 00:24:51;;;;;;;;;;;;;;;11.24;100.00;101152.44;5535448;25;945;-83
2024/04/19 00:27:17;;;;;;;;;;;;;;;11.37;100.00;101155.84;5533695;26;1239;-83
2024/04/19 00:29:44;;;;;;;;;;;;;;;11.24;100.00;101141.69;5535775;26;1017;-83
2024/04/19 00:32:11;;;;;;;;;;;;;;;11.23;100.00;101135.47;5536936;26;937;-83
2024/04/19 00:34:37;;;;;;;;;;;;;;;11.14;100.00;101134.38;5503896;26;806;-84
2024/04/19 00:37:03;;;;;;;;;;;;;;;11.12;100.00;101135.47;5537583;26;1198;-84
2024/04/19 00:39:29;;;;;;;;;;;;;;;11.13;100.00;101121.06;5537099;26;937;-83
2024/04/19 00:41:55;;;;;;;;;;;;;;;11.14;100.00;101120.94;5504953;26;1810;-83
2024/04/19 00:44:21;;;;;;;;;;;;;;;11.06;100.00;101109.09;5538556;26;977;-83
2024/04/19 00:46:47;;;;;;;;;;;;;;;10.90;100.00;101104.91;5504798;26;1179;-83
2024/04/19 00:49:13;;;;;;;;;;;;;;;10.88;100.00;101098.81;5536975;26;923;-83
2024/04/19 00:51:40;;;;;;;;;;;;;;;10.69;100.00;101097.66;5534181;26;790;-82
2024/04/19 00:54:06;;;;;;;;;;;;;;;10.76;100.00;101086.34;5533784;26;782;-83
2024/04/19 00:56:32;;;;;;;;;;;;;;;10.72;100.00;101084.03;5535603;26;1182;-83
2024/04/19 00:58:58;;;;;;;;;;;;;;;10.86;100.00;101075.75;5535796;25;917;-83
2024/04/19 01:01:25;;;;;;;;;;;;;;;10.93;100.00;101070.78;5533097;26;1843;-83
2024/04/19 01:03:51;;;;;;;;;;;;;;;10.87;100.00;101059.53;5535012;25;957;-84
2024/04/19 01:06:17;;;;;;;;;;;;;;;10.91;100.00;101066.38;5502181;26;848;-83
2024/04/19 01:08:44;;;;;;;;;;;;;;;10.83;100.00;101043.81;5532114;26;1178;-83
2024/04/19 01:11:10;;;;;;;;;;;;;;;10.81;100.00;101051.94;5534339;26;921;-82
2024/04/19 01:13:36;;;;;;;;;;;;;;;10.67;100.00;101045.97;5534322;26;981;-83
2024/04/19 01:16:03;;;;;;;;;;;;;;;10.74;100.00;101042.69;5534018;26;878;-83
2024/04/19 01:18:29;;;;;;;;;;;;;;;10.57;100.00;101038.63;5503940;26;1218;-82
2024/04/19 01:20:55;;;;;;;;;;;;;;;10.51;100.00;101025.66;5538050;26;933;-83
2024/04/19 01:23:21;;;;;;;;;;;;;;;10.57;100.00;101017.16;5538089;26;1818;-82
2024/04/19 01:25:48;;;;;;;;;;;;;;;10.52;100.00;101005.94;5537682;26;977;-83
2024/04/19 01:28:14;;;;;;;;;;;;;;;10.50;100.00;101002.50;5537533;26;1163;-83
2024/04/19 01:30:44;;;;;;;;;;;;;;;10.52;100.00;100995.22;5536173;25;824;-82
2024/04/19 01:33:11;;;;;;;;;;;;;;;10.60;100.00;100994.59;5538400;25;822;-83
2024/04/19 01:35:37;;;;;;;;;;;;;;;10.50;100.00;100988.25;5538592;26;993;-83
2024/04/19 01:38:04;;;;;;;;;;;;;;;10.46;100.00;100984.97;5537391;26;1203;-83
2024/04/19 01:40:30;;;;;;;;;;;;;;;10.69;100.00;100984.97;5537637;26;1006;-83
2024/04/19 01:42:56;;;;;;;;;;;;;;;10.78;100.00;100971.69;5537571;26;1821;-83
2024/04/19 01:45:22;;;;;;;;;;;;;;;10.73;100.00;100968.53;5537409;25;937;-83
2024/04/19 01:47:48;;;;;;;;;;;;;;;10.66;100.00;100961.94;5538039;26;1216;-83
2024/04/19 01:50:14;;;;;;;;;;;;;;;10.53;100.00;100962.06;5538134;26;990;-83
2024/04/19 01:52:40;;;;;;;;;;;;;;;10.57;100.00;100965.34;5504409;26;845;-83
2024/04/19 01:55:06;;;;;;;;;;;;;;;10.64;100.00;100953.16;5537036;26;992;-83
2024/04/19 01:57:32;;;;;;;;;;;;;;;10.50;100.00;100932.78;5504533;26;1238;-82
2024/04/19 01:59:58;;;;;;;;;;;;;;;10.55;100.00;100941.34;5537568;26;930;-83
2024/04/19 02:02:26;;;;;;;;;;;;;;;10.43;100.00;100934.25;5537388;26;1817;-83
2024/04/19 02:04:52;;;;;;;;;;;;;;;10.57;100.00;100920.59;5536743;26;922;-82
2024/04/19 02:07:18;;;;;;;;;;;;;;;10.67;100.00;100911.81;5536628;25;1166;-82
2024/04/19 02:09:44;;;;;;;;;;;;;;;10.73;100.00;100885.38;5537228;26;1000;-83
2024/04/19 02:12:11;;;;;;;;;;;;;;;10.72;100.00;100878.28;5537310;25;937;-83
2024/04/19 02:14:37;;;;;;;;;;;;;;;10.65;100.00;100881.59;5535496;26;857;-83
2024/04/19 02:17:03;;;;;;;;;;;;;;;10.59;100.00;100867.69;5537148;26;1208;-83
2024/04/19 02:19:35;;;;;;;;;;;;;;;10.55;100.00;100860.88;5504616;26;881;-83
2024/04/19 02:22:05;;;;;;;;;;;;;;;10.46;100.00;100837.47;5536909;26;1833;-83
2024/04/19 02:24:32;;;;;;;;;;;;;;;10.43;100.00;100836.88;5536464;26;949;-83
2024/04/19 02:27:00;;;;;;;;;;;;;;;10.18;100.00;100837.91;5505468;26;1170;-83
2024/04/19 02:32:10;;;;;;;;;;;;;;;10.43;100.00;100818.94;5537214;26;616;-83
2024/04/19 02:34:36;;;;;;;;;;;;;;;10.46;100.00;100805.28;5534241;26;825;-83
2024/04/19 02:37:03;;;;;;;;;;;;;;;10.36;100.00;100804.31;5534753;26;1194;-83
2024/04/19 02:39:29;;;;;;;;;;;;;;;10.41;100.00;100790.53;5537051;25;1032;-83
2024/04/19 02:41:55;;;;;;;;;;;;;;;10.22;100.00;100777.75;5534962;26;1818;-83
2024/04/19 02:44:21;;;;;;;;;;;;;;;10.06;100.00;100775.41;5536663;25;913;-82
2024/04/19 02:46:49;;;;;;;;;;;;;;;10.03;100.00;100765.81;5535009;26;1207;-83
2024/04/19 02:49:15;;;;;;;;;;;;;;;10.12;100.00;100760.66;5536490;26;935;-83
2024/04/19 02:51:41;;;;;;;;;;;;;;;10.07;100.00;100747.63;5503578;26;803;-82
2024/04/19 02:54:07;;;;;;;;;;;;;;;10.08;100.00;100743.97;5536144;26;954;-83
2024/04/19 02:56:33;;;;;;;;;;;;;;;10.25;100.00;100737.31;5536532;25;1170;-83
2024/04/19 02:59:00;;;;;;;;;;;;;;;10.24;100.00;100733.78;5535989;26;930;-83
2024/04/19 03:01:27;;;;;;;;;;;;;;;10.24;100.00;100727.56;5503264;26;1810;-83
2024/04/19 03:03:53;;;;;;;;;;;;;;;10.20;100.00;100712.66;5534198;25;811;-83
2024/04/19 03:06:19;;;;;;;;;;;;;;;10.30;100.00;100706.44;5535813;26;894;-83
2024/04/19 03:08:45;;;;;;;;;;;;;;;10.30;100.00;100705.59;5536175;25;1151;-83
2024/04/19 03:11:11;;;;;;;;;;;;;;;10.23;100.00;100691.88;5536577;26;989;-83
2024/04/19 03:13:37;;;;;;;;;;;;;;;10.18;100.00;100690.50;5535974;26;985;-83
2024/04/19 03:16:06;;;;;;;;;;;;;;;10.18;100.00;100679.75;5502454;26;861;-83
2024/04/19 03:18:33;;;;;;;;;;;;;;;10.25;100.00;100671.13;5535972;26;1158;-83
2024/04/19 03:21:00;;;;;;;;;;;;;;;10.15;100.00;100666.63;5536121;26;917;-83
2024/04/19 03:23:26;;;;;;;;;;;;;;;10.23;100.00;100657.00;5535918;25;1860;-83
2024/04/19 03:25:59;;;;;;;;;;;;;;;10.14;100.00;100640.81;5535863;26;976;-83
2024/04/19 03:28:26;;;;;;;;;;;;;;;10.23;100.00;100630.22;5535744;26;1301;-83
2024/04/19 03:30:52;;;;;;;;;;;;;;;10.03;100.00;100629.13;5535511;26;938;-82
2024/04/19 03:33:18;;;;;;;;;;;;;;;10.24;100.00;100617.66;5535653;26;863;-83
2024/04/19 03:35:44;;;;;;;;;;;;;;;10.15;100.00;100623.75;5534872;26;914;-83
2024/04/19 03:38:14;;;;;;;;;;;;;;;10.15;100.00;100615.69;5535895;26;1182;-83
2024/04/19 03:40:41;;;;;;;;;;;;;;;10.24;100.00;100606.94;5501503;26;918;-82
2024/04/19 03:43:10;;;;;;;;;;;;;;;10.26;100.00;100600.47;5535064;26;1825;-83
2024/04/19 03:45:44;;;;;;;;;;;;;;;10.22;100.00;100598.16;5534663;26;819;-83
2024/04/19 03:48:13;;;;;;;;;;;;;;;10.21;100.00;100594.56;5535216;25;1205;-83
2024/04/19 03:50:39;;;;;;;;;;;;;;;10.33;100.00;100585.56;5535486;26;913;-83
2024/04/19 03:53:05;;;;;;;;;;;;;;;10.41;100.00;100592.09;5503098;26;787;-83
2024/04/19 03:55:31;;;;;;;;;;;;;;;10.44;100.00;100576.63;5532924;26;797;-83
2024/04/19 03:57:58;;;;;;;;;;;;;;;10.34;100.00;100579.22;5534787;26;1151;-82
2024/04/19 04:00:25;;;;;;;;;;;;;;;10.47;100.00;100565.63;5535279;26;705;-83
2024/04/19 04:02:52;;;;;;;;;;;;;;;10.40;100.00;100575.16;5531830;26;1867;-83
2024/04/19 04:05:19;;;;;;;;;;;;;;;10.58;100.00;100562.03;5532719;26;790;-82
2024/04/19 04:07:45;;;;;;;;;;;;;;;10.61;100.00;100553.72;5534641;26;1158;-83
2024/04/19 04:10:11;;;;;;;;;;;;;;;10.65;100.00;100557.00;5534629;26;1008;-83
2024/04/19 04:12:37;;;;;;;;;;;;;;;10.61;100.00;100543.00;5533682;25;953;-83
2024/04/19 04:15:04;;;;;;;;;;;;;;;10.42;100.00;100549.09;5534623;25;922;-83
2024/04/19 04:17:30;;;;;;;;;;;;;;;10.44;100.00;100524.81;5534186;25;1171;-83
2024/04/19 04:19:56;;;;;;;;;;;;;;;10.42;100.00;100540.16;5534968;26;997;-83
2024/04/19 04:22:22;;;;;;;;;;;;;;;10.63;100.00;100530.31;5500482;26;1816;-83
2024/04/19 04:24:48;;;;;;;;;;;;;;;10.70;100.00;100525.25;5533871;26;989;-83
2024/04/19 04:27:14;;;;;;;;;;;;;;;10.80;100.00;100528.84;5531517;25;1216;-83
2024/04/19 04:29:40;;;;;;;;;;;;;;;10.70;100.00;100534.16;5501471;26;795;-82
2024/04/19 04:32:07;;;;;;;;;;;;;;;10.75;100.00;100517.69;5501733;26;885;-83
2024/04/19 04:34:33;;;;;;;;;;;;;;;10.84;100.00;100517.75;5530904;26;803;-83
2024/04/19 04:36:59;;;;;;;;;;;;;;;10.93;100.00;100510.72;5533664;26;1170;-83
2024/04/19 04:39:25;;;;;;;;;;;;;;;10.66;100.00;100510.44;5533890;26;992;-82
2024/04/19 04:41:51;;;;;;;;;;;;;;;10.78;100.00;100504.84;5534353;26;1820;-83
2024/04/19 04:44:17;;;;;;;;;;;;;;;10.80;100.00;100512.75;5532264;26;803;-83
2024/04/19 04:46:43;;;;;;;;;;;;;;;10.94;100.00;100512.41;5533533;25;1230;-83
2024/04/19 04:49:09;;;;;;;;;;;;;;;11.07;100.00;100512.19;5531583;25;865;-83
2024/04/19 04:51:36;;;;;;;;;;;;;;;11.12;100.00;100520.69;5532768;26;969;-83
2024/04/19 04:54:02;;;;;;;;;;;;;;;11.17;100.00;100511.25;5534348;26;926;-83
2024/04/19 04:56:28;;;;;;;;;;;;;;;11.06;100.00;100513.19;5530678;26;1163;-83
2024/04/19 04:58:54;;;;;;;;;;;;;;;10.72;100.00;100513.44;5532315;25;826;-83
2024/04/19 05:01:20;;;;;;;;;;;;;;;10.67;100.00;100496.03;5534404;26;922;-82
2024/04/19 05:03:50;;;;;;;;;;;;;;;10.74;100.00;100508.78;5501242;26;1852;-83
2024/04/19 05:06:16;;;;;;;;;;;;;;;10.86;100.00;100501.50;5533673;25;973;-83
2024/04/19 05:08:42;;;;;;;;;;;;;;;11.09;100.00;100507.53;5534024;26;1154;-83
2024/04/19 05:11:08;;;;;;;;;;;;;;;11.13;100.00;100512.50;5501084;26;877;-83
2024/04/19 05:13:34;;;;;;;;;;;;;;;11.17;100.00;100505.03;5534272;26;894;-83
2024/04/19 05:16:01;;;;;;;;;;;;;;;11.15;100.00;100507.84;5533167;25;886;-83
2024/04/19 05:18:28;;;;;;;;;;;;;;;11.20;100.00;100502.91;5533203;26;1188;-83
2024/04/19 05:20:53;;;;;;;;;;;;;;;11.28;100.00;100498.69;5534177;25;981;-82
2024/04/19 05:23:19;;;;;;;;;;;;;;;11.17;100.00;100495.13;5533762;25;1831;-82
2024/04/19 05:25:46;;;;;;;;;;;;;;;11.25;100.00;100489.09;5533598;26;1008;-82
2024/04/19 05:28:11;;;;;;;;;;;;;;;11.27;100.00;100483.56;5533736;25;1174;-83
2024/04/19 05:30:38;;;;;;;;;;;;;;;11.40;100.00;100485.00;5534596;26;926;-83
2024/04/19 05:33:05;;;;;;;;;;;;;;;11.51;100.00;100484.06;5534319;25;961;-82
2024/04/19 05:35:32;;;;;;;;;;;;;;;11.61;100.00;100482.25;5531760;25;816;-83
2024/04/19 05:37:58;;;;;;;;;;;;;;;11.64;100.00;100481.97;5534888;25;1214;-82
2024/04/19 05:40:25;;;;;;;;;;;;;;;11.67;100.00;100484.38;5535599;25;988;-83
2024/04/19 05:42:52;;;;;;;;;;;;;;;11.76;100.00;100488.91;5536630;26;1816;-82
2024/04/19 05:45:20;;;;;;;;;;;;;;;11.60;100.00;100490.44;5501399;26;789;-82
2024/04/19 05:47:46;;;;;;;;;;;;;;;11.73;100.00;100482.97;5502059;26;1167;-82
2024/04/19 05:50:13;;;;;;;;;;;;;;;11.65;100.00;100478.28;5535213;26;1016;-83
2024/04/19 05:52:39;;;;;;;;;;;;;;;11.68;100.00;100477.16;5536163;25;886;-83
2024/04/19 05:55:06;;;;;;;;;;;;;;;11.71;100.00;100472.38;5535738;26;941;-82
2024/04/19 05:57:32;;;;;;;;;;;;;;;11.78;100.00;100476.19;5533881;26;1170;-82
2024/04/19 05:59:58;;;;;;;;;;;;;;;11.83;100.00;100469.59;5534673;26;1013;-83
2024/04/19 06:02:24;;;;;;;;;;;;;;;11.86;100.00;100459.38;5534016;26;1821;-82
2024/04/19 06:04:51;;;;;;;;;;;;;;;11.86;100.00;100459.38;5533481;26;3346;-87
2024/04/19 06:07:21;;;;;;;;;;;;;;;11.90;100.00;100459.97;5462634;26;3222;-84
2024/04/19 06:09:47;;;;;;;;;;;;;;;11.94;100.00;100458.69;5466245;26;800;-86
2024/04/19 06:12:13;;;;;;;;;;;;;;;11.95;100.00;100452.31;5482344;26;3317;-85
2024/04/19 06:14:39;;;;;;;;;;;;;;;12.03;100.00;100453.31;5465443;26;873;-85
2024/04/19 06:17:05;;;;;;;;;;;;;;;12.16;100.00;100455.69;5498681;26;1179;-85
2024/04/19 06:19:31;;;;;;;;;;;;;;;12.20;100.00;100446.38;5498375;26;938;-85
2024/04/19 06:21:57;;;;;;;;;;;;;;;12.25;100.00;100446.78;5532047;25;1403;-85
2024/04/19 06:24:23;;;;;;;;;;;;;;;12.26;100.00;100444.94;5527237;26;3283;-85
2024/04/19 06:26:50;;;;;;;;;;;;;;;12.24;100.00;100447.75;5535445;26;1214;-86
2024/04/19 06:29:23;;;;;;;;;;;;;;;12.30;100.00;100439.13;5496556;26;883;-86
2024/04/19 06:31:49;;;;;;;;;;;;;;;12.31;100.00;100440.81;5481444;26;1306;-88
2024/04/19 06:34:26;;;;;;;;;;;;;;;12.42;100.00;100442.50;5501019;26;953;-87
2024/04/19 06:36:52;;;;;;;;;;;;;;;12.47;100.00;100433.97;5534857;25;1344;-86
2024/04/19 06:39:23;;;;;;;;;;;;;;;12.53;100.00;100433.41;5536858;25;1036;-85
2024/04/19 06:41:49;;;;;;;;;;;;;;;12.51;100.00;100435.41;5504214;26;988;-85
2024/04/19 06:44:15;;;;;;;;;;;;;;;12.52;100.00;100426.34;5536233;26;2238;-85
2024/04/19 06:46:41;;;;;;;;;;;;;;;12.63;100.00;100423.47;5516988;26;1240;-85
2024/04/19 06:49:07;;;;;;;;;;;;;;;12.75;100.00;100424.97;5500446;26;828;-85
2024/04/19 06:51:33;;;;;;;;;;;;;;;12.80;100.00;100422.69;5498743;26;824;-85
2024/04/19 06:53:59;;;;;;;;;;;;;;;12.88;100.00;100414.72;5491979;26;1323;-85
2024/04/19 06:56:26;;;;;;;;;;;;;;;12.90;100.00;100428.03;5473506;26;1183;-86
2024/04/19 06:58:52;;;;;;;;;;;;;;;12.97;100.00;100418.34;5492791;26;1306;-85
2024/04/19 07:01:18;;;;;;;;;;;;;;;12.98;100.00;100421.88;5467560;26;2627;-84
2024/04/19 07:03:44;;;;;;;;;;;;;;;12.99;100.00;100424.47;5519720;26;1857;-84
2024/04/19 07:06:11;;;;;;;;;;;;;;;12.98;100.00;100420.06;5535148;25;1625;-84
2024/04/19 07:08:39;;;;;;;;;;;;;;;12.98;100.00;100433.53;5502360;26;1315;-84
2024/04/19 07:11:05;;;;;;;;;;;;;;;12.89;100.00;100432.56;5538609;25;1237;-84
2024/04/19 07:13:32;;;;;;;;;;;;;;;12.89;100.00;100432.56;5537695;26;1431;-86
2024/04/19 07:15:58;;;;;;;;;;;;;;;12.93;100.00;100436.66;5501719;26;794;-86
2024/04/19 07:18:24;;;;;;;;;;;;;;;12.86;100.00;100432.84;5536332;25;1234;-86
2024/04/19 07:20:51;;;;;;;;;;;;;;;12.87;100.00;100431.84;5498478;26;879;-85
2024/04/19 07:23:18;;;;;;;;;;;;;;;12.91;100.00;100427.88;5534615;25;1814;-85
2024/04/19 07:25:44;;;;;;;;;;;;;;;12.86;100.00;100419.41;5535269;26;1012;-86
2024/04/19 07:28:10;;;;;;;;;;;;;;;12.85;100.00;100422.25;5535625;26;1216;-86
2024/04/19 07:30:36;;;;;;;;;;;;;;;12.88;100.00;100417.44;5489559;26;1647;-85
2024/04/19 07:33:03;;;;;;;;;;;;;;;12.92;100.00;100421.50;5496390;26;1522;-87
2024/04/19 07:35:31;;;;;;;;;;;;;;;12.97;100.00;100412.13;5531278;26;1615;-87
2024/04/19 07:37:57;;;;;;;;;;;;;;;12.99;100.00;100412.84;5506489;26;1424;-88
2024/04/19 07:40:25;;;;;;;;;;;;;;;13.10;100.00;100407.25;5466124;26;1025;-84
2024/04/19 07:42:51;;;;;;;;;;;;;;;13.21;100.00;100412.47;5489679;26;1853;-84
2024/04/19 07:45:22;;;;;;;;;;;;;;;13.27;100.00;100411.84;5503012;26;774;-85
2024/04/19 07:47:49;;;;;;;;;;;;;;;13.32;100.00;100414.94;5506638;26;1260;-85
2024/04/19 07:50:16;;;;;;;;;;;;;;;13.22;100.00;100418.69;5500856;26;788;-85
2024/04/19 07:52:42;;;;;;;;;;;;;;;13.09;100.00;100413.63;5466448;26;1416;-85
2024/04/19 07:55:08;;;;;;;;;;;;;;;13.08;100.00;100418.19;5491278;26;857;-85
2024/04/19 07:57:34;;;;;;;;;;;;;;;13.03;100.00;100414.22;5500123;26;1380;-84
2024/04/19 08:00:01;;;;;;;;;;;;;;;13.10;100.00;100407.25;5530621;26;864;-84
2024/04/19 08:02:27;;;;;;;;;;;;;;;13.16;100.00;100415.56;5530083;26;853;-84
2024/04/19 08:04:53;;;;;;;;;;;;;;;13.14;100.00;100414.00;5532550;26;1817;-85
2024/04/19 08:07:23;;;;;;;;;;;;;;;13.09;100.00;100405.56;5531595;26;1194;-85
2024/04/19 08:09:55;;;;;;;;;;;;;;;13.21;100.00;100396.28;5533423;26;954;-83
2024/04/19 08:12:21;;;;;;;;;;;;;;;13.35;100.00;100394.91;5536980;26;978;-85
2024/04/19 08:14:48;;;;;;;;;;;;;;;13.46;100.00;100397.38;5536140;26;926;-84
2024/04/19 08:17:14;;;;;;;;;;;;;;;13.44;100.00;100388.63;5502355;26;1198;-85
2024/04/19 08:19:40;;;;;;;;;;;;;;;13.47;100.00;100394.56;5532726;26;879;-84
2024/04/19 08:22:06;;;;;;;;;;;;;;;13.48;100.00;100390.03;5560120;25;1324;-85
2024/04/19 08:24:32;;;;;;;;;;;;;;;13.51;100.00;100380.78;5538868;25;1805;-85
2024/04/19 08:26:58;;;;;;;;;;;;;;;13.53;100.00;100389.53;5562950;25;1195;-82
2024/04/19 08:29:24;;;;;;;;;;;;;;;13.56;100.00;100392.78;5534487;26;1002;-83
2024/04/19 08:31:50;;;;;;;;;;;;;;;13.57;100.00;100382.84;5501187;25;930;-83
2024/04/19 08:34:16;;;;;;;;;;;;;;;13.60;100.00;100394.19;5536005;26;1005;-82
2024/04/19 08:36:42;;;;;;;;;;;;;;;13.55;100.00;100387.53;5502591;26;1227;-82
2024/04/19 08:39:08;;;;;;;;;;;;;;;13.62;100.00;100389.47;5535690;25;911;-82
2024/04/19 08:41:35;;;;;;;;;;;;;;;13.73;100.00;100385.69;5533609;25;1000;-83
2024/04/19 08:44:01;;;;;;;;;;;;;;;13.80;100.00;100380.53;5536198;25;1817;-83
2024/04/19 08:46:27;;;;;;;;;;;;;;;13.75;100.00;100379.13;5534754;26;1180;-83
2024/04/19 08:48:55;;;;;;;;;;;;;;;13.64;100.00;100382.06;5536262;26;922;-83
2024/04/19 08:51:22;;;;;;;;;;;;;;;13.71;100.00;100377.75;5536405;26;936;-82
2024/04/19 08:53:51;;;;;;;;;;;;;;;13.78;100.00;100386.09;5535425;26;1000;-82
2024/04/19 08:56:17;;;;;;;;;;;;;;;13.87;100.00;100373.53;5535669;26;941;-82
2024/04/19 08:58:43;;;;;;;;;;;;;;;13.89;100.00;100374.22;5503843;25;1193;-82
2024/04/19 09:01:09;;;;;;;;;;;;;;;14.00;100.00;100366.72;5534577;26;929;-80
2024/04/19 09:03:35;;;;;;;;;;;;;;;14.03;100.00;100350.22;5537789;26;1814;-80
2024/04/19 09:06:01;;;;;;;;;;;;;;;14.11;100.00;100351.28;5533041;26;815;-80
2024/04/19 09:08:28;;;;;;;;;;;;;;;14.19;100.00;100362.13;5533256;26;1182;-80
2024/04/19 09:10:54;;;;;;;;;;;;;;;14.22;99.62;100357.25;5533889;26;996;-80
2024/04/19 09:13:20;;;;;;;;;;;;;;;14.29;100.00;100368.25;5532520;25;922;-81
2024/04/19 09:15:46;;;;;;;;;;;;;;;14.17;92.51;100356.06;5531443;26;3208;-81
2024/04/19 09:18:13;;;;;;;;;;;;;;;14.27;92.74;100363.03;5491053;26;5057;-82
2024/04/19 09:20:44;;;;;;;;;;;;;;;14.36;91.73;100361.22;5501334;26;914;-82
2024/04/19 09:23:10;;;;;;;;;;;;;;;14.46;90.29;100350.34;5499478;26;1853;-80
2024/04/19 09:25:38;;;;;;;;;;;;;;;14.39;87.84;100357.34;5498944;26;840;-82
2024/04/19 09:28:09;;;;;;;;;;;;;;;14.47;87.01;100366.38;5499346;26;1183;-82
2024/04/19 09:30:35;;;;;;;;;;;;;;;14.54;86.43;100364.72;5500027;26;574;-81
2024/04/19 09:33:01;;;;;;;;;;;;;;;14.66;83.47;100365.31;5512574;25;1442;-82
2024/04/19 09:35:27;;;;;;;;;;;;;;;14.66;81.63;100370.69;5515849;26;3271;-81
2024/04/19 09:37:54;;;;;;;;;;;;;;;14.66;82.51;100359.06;5498273;26;1229;-81
2024/04/19 09:40:24;;;;;;;;;;;;;;;14.71;81.28;100357.56;5500973;26;1013;-81
2024/04/19 09:42:51;;;;;;;;;;;;;;;14.72;80.86;100358.41;5469927;26;1430;-81
2024/04/19 09:45:19;;;;;;;;;;;;;;;14.74;82.00;100368.00;5499235;26;1868;-82
2024/04/19 09:47:51;;;;;;;;;;;;;;;14.68;84.26;100365.97;5500184;26;1240;-82
2024/04/19 09:50:19;;;;;;;;;;;;;;;14.42;84.84;100374.06;5468080;26;807;-81
2024/04/19 09:52:50;;;;;;;;;;;;;;;14.21;96.23;100360.13;5570516;25;1253;-81
2024/04/19 09:55:28;;;;;;;;;;;;;;;14.10;100.00;100354.97;5566851;25;780;-79
2024/04/19 09:57:56;;;;;;;;;;;;;;;14.14;100.00;100357.19;5570734;25;1279;-81
2024/04/19 10:00:28;;;;;;;;;;;;;;;14.27;99.19;100359.50;5530297;25;4117;-79
2024/04/19 10:02:56;;;;;;;;;;;;;;;14.25;98.12;100348.81;5507700;26;3225;-80
2024/04/19 10:05:23;;;;;;;;;;;;;;;14.59;100.00;100346.19;5531188;26;1837;-79
2024/04/19 10:07:50;;;;;;;;;;;;;;;14.87;96.21;100348.69;5531370;26;1191;-80
2024/04/19 10:10:16;;;;;;;;;;;;;;;15.11;97.02;100340.63;5534187;25;937;-79
2024/04/19 10:12:45;;;;;;;;;;;;;;;15.23;93.68;100335.75;5531292;26;850;-81
2024/04/19 10:15:13;;;;;;;;;;;;;;;15.35;90.28;100336.31;5533389;25;791;-80
2024/04/19 10:17:40;;;;;;;;;;;;;;;15.47;88.75;100330.41;5535256;25;1186;-80
2024/04/19 10:20:09;;;;;;;;;;;;;;;15.44;87.27;100336.16;5501824;25;803;-81
2024/04/19 10:22:40;;;;;;;;;;;;;;;15.28;82.89;100316.38;5534310;25;985;-80
2024/04/19 10:25:06;;;;;;;;;;;;;;;15.41;82.73;100327.53;5501286;26;1813;-80
2024/04/19 10:27:32;;;;;;;;;;;;;;;15.43;83.71;100317.38;5534580;25;1230;-80
2024/04/19 10:29:59;;;;;;;;;;;;;;;15.41;84.83;100316.72;5534409;26;1000;-80
2024/04/19 10:32:25;;;;;;;;;;;;;;;15.55;82.28;100315.22;5534666;25;937;-79
2024/04/19 10:34:51;;;;;;;;;;;;;;;15.64;81.52;100325.06;5501828;26;798;-79
2024/04/19 10:37:18;;;;;;;;;;;;;;;15.68;78.43;100302.91;5534366;26;1226;-81
2024/04/19 10:39:44;;;;;;;;;;;;;;;15.65;78.12;100297.84;5534975;26;973;-79
2024/04/19 10:42:10;;;;;;;;;;;;;;;15.57;78.76;100292.41;5534768;26;992;-80
2024/04/19 10:44:39;;;;;;;;;;;;;;;15.47;79.62;100297.13;5534125;26;1813;-79
2024/04/19 10:47:08;;;;;;;;;;;;;;;15.40;79.10;100301.50;5501162;25;1183;-80
2024/04/19 10:49:34;;;;;;;;;;;;;;;15.34;81.76;100296.75;5533692;26;917;-80
2024/04/19 10:52:00;;;;;;;;;;;;;;;15.32;82.46;100296.09;5487508;26;4485;-80
2024/04/19 10:54:26;;;;;;;;;;;;;;;15.23;80.73;100289.81;5490809;26;781;-79
2024/04/19 10:56:55;;;;;;;;;;;;;;;15.25;82.08;100289.69;5493520;26;1186;-80
2024/04/19 10:59:21;;;;;;;;;;;;;;;15.16;81.85;100283.44;5496070;26;783;-79
2024/04/19 11:01:49;;;;;;;;;;;;;;;15.14;83.23;100282.72;5463537;26;794;-79
2024/04/19 11:04:15;;;;;;;;;;;;;;;15.38;85.03;100274.66;5498867;26;1822;-79
2024/04/19 11:06:42;;;;;;;;;;;;;;;15.54;80.05;100273.81;5498754;26;1224;-79
2024/04/19 11:09:08;;;;;;;;;;;;;;;15.51;74.16;100268.72;5497680;26;811;-79
2024/04/19 11:11:37;;;;;;;;;;;;;;;15.43;72.26;100253.34;5497923;26;1010;-80
2024/04/19 11:14:07;;;;;;;;;;;;;;;15.59;72.31;100265.19;5465546;26;869;-79
2024/04/19 11:16:33;;;;;;;;;;;;;;;15.88;68.34;100257.41;5495935;26;1170;-79
2024/04/19 11:18:59;;;;;;;;;;;;;;;15.93;67.36;100265.03;5497056;26;828;-80
2024/04/19 11:21:25;;;;;;;;;;;;;;;15.72;66.05;100277.19;5497287;26;918;-80
2024/04/19 11:23:51;;;;;;;;;;;;;;;15.42;71.27;100289.50;5497759;26;1851;-80
2024/04/19 11:26:17;;;;;;;;;;;;;;;15.07;80.52;100304.19;5463951;26;828;-80
2024/04/19 11:28:47;;;;;;;;;;;;;;;14.64;90.75;100310.59;5497643;26;1159;-80
2024/04/19 11:31:14;;;;;;;;;;;;;;;14.48;98.50;100313.25;5497901;26;946;-80
2024/04/19 11:33:40;;;;;;;;;;;;;;;14.27;100.00;100311.78;5497378;26;942;-79
2024/04/19 11:36:13;;;;;;;;;;;;;;;14.40;100.00;100305.94;5465079;26;804;-79
2024/04/19 11:38:40;;;;;;;;;;;;;;;14.39;100.00;100306.09;5464013;26;1237;-80
2024/04/19 11:41:10;;;;;;;;;;;;;;;14.44;100.00;100296.50;5497007;26;942;-81
2024/04/19 11:43:36;;;;;;;;;;;;;;;14.76;100.00;100295.81;5496560;26;1002;-80
2024/04/19 11:46:02;;;;;;;;;;;;;;;14.91;99.59;100288.75;5493488;26;1840;-80
2024/04/19 11:48:28;;;;;;;;;;;;;;;14.90;93.67;100284.38;5465106;26;1218;-80
2024/04/19 11:50:55;;;;;;;;;;;;;;;15.08;96.72;100275.31;5465846;26;799;-81
2024/04/19 11:53:22;;;;;;;;;;;;;;;15.21;98.99;100267.53;5501411;26;1018;-82
2024/04/19 11:55:50;;;;;;;;;;;;;;;15.38;96.34;100271.94;5466266;26;877;-82
2024/04/19 11:58:17;;;;;;;;;;;;;;;15.64;92.42;100271.81;5467966;26;1218;-81
2024/04/19 12:00:43;;;;;;;;;;;;;;;15.43;87.29;100266.88;5498777;26;942;-81
2024/04/19 12:03:09;;;;;;;;;;;;;;;15.24;93.64;100282.56;5470092;26;775;-81
2024/04/19 12:05:36;;;;;;;;;;;;;;;14.86;100.00;100293.84;5469498;26;1961;-82
2024/04/19 12:08:02;;;;;;;;;;;;;;;14.64;100.00;100289.00;5502136;26;1167;-81
2024/04/19 12:10:29;;;;;;;;;;;;;;;14.44;100.00;100295.66;5503272;26;923;-81
2024/04/19 12:12:55;;;;;;;;;;;;;;;14.45;100.00;100291.97;5503399;26;1001;-81
2024/04/19 12:15:21;;;;;;;;;;;;;;;14.59;100.00;100291.38;5501218;26;935;-81
2024/04/19 12:17:47;;;;;;;;;;;;;;;14.95;99.15;100278.50;5468937;26;1169;-80
2024/04/19 12:20:13;;;;;;;;;;;;;;;15.10;86.67;100281.38;5502630;26;943;-80
2024/04/19 12:22:39;;;;;;;;;;;;;;;15.13;84.83;100284.59;5502056;26;982;-80
2024/04/19 12:25:05;;;;;;;;;;;;;;;15.00;81.24;100292.34;5469640;26;1907;-81
2024/04/19 12:27:31;;;;;;;;;;;;;;;14.99;75.57;100284.41;5502828;26;1179;-80
2024/04/19 12:29:57;;;;;;;;;;;;;;;14.99;75.03;100293.34;5503930;26;942;-81
2024/04/19 12:32:23;;;;;;;;;;;;;;;15.06;73.25;100288.13;5480404;26;3243;-80
2024/04/19 12:34:50;;;;;;;;;;;;;;;15.20;74.49;100295.56;5500285;26;953;-81
2024/04/19 12:37:16;;;;;;;;;;;;;;;15.09;71.02;100277.84;5502313;26;3389;-82
2024/04/19 12:39:42;;;;;;;;;;;;;;;15.13;70.65;100287.28;5535987;26;1258;-82
2024/04/19 12:42:08;;;;;;;;;;;;;;;15.04;67.21;100280.16;5503107;26;897;-81